createdAt,value
2019-03-31T00:01:08.411Z,7.12
2019-03-31T00:03:37.075Z,6.92
2019-03-31T00:06:05.690Z,6.70
2019-03-31T00:08:34.339Z,6.65
2019-03-31T00:11:02.990Z,6.70
2019-03-31T00:13:31.603Z,7.00
2019-03-31T00:16:00.426Z,6.85
2019-03-31T00:18:29.040Z,6.90
2019-03-31T00:20:57.655Z,7.08
2019-03-31T00:23:26.299Z,7.28
2019-03-31T00:25:54.913Z,7.47
2019-03-31T00:28:23.523Z,7.50
2019-03-31T00:30:52.176Z,7.22
2019-03-31T00:33:20.784Z,7.58
2019-03-31T00:35:49.388Z,7.30
2019-03-31T00:38:18.035Z,6.78
2019-03-31T00:40:46.718Z,6.87
2019-03-31T00:43:15.364Z,6.90
2019-03-31T00:45:44.007Z,6.58
2019-03-31T00:48:12.624Z,6.20
2019-03-31T00:50:41.263Z,7.00
2019-03-31T00:53:09.908Z,6.97
2019-03-31T00:55:38.556Z,7.22
2019-03-31T00:58:07.162Z,7.10
2019-03-31T01:00:35.873Z,6.90
2019-03-31T01:03:04.865Z,7.70
2019-03-31T01:05:33.757Z,6.92
2019-03-31T01:08:02.578Z,7.55
2019-03-31T01:10:31.430Z,7.00
2019-03-31T01:13:00.089Z,6.95
2019-03-31T01:15:28.867Z,7.20
2019-03-31T01:17:57.485Z,7.42
2019-03-31T01:20:26.201Z,7.40
2019-03-31T01:22:54.920Z,6.97
2019-03-31T01:25:23.710Z,7.55
2019-03-31T01:27:52.590Z,7.17
2019-03-31T01:30:21.423Z,7.62
2019-03-31T01:32:50.107Z,7.67
2019-03-31T01:35:18.830Z,7.45
2019-03-31T01:37:47.515Z,7.67
2019-03-31T01:40:16.232Z,7.50
2019-03-31T01:42:44.868Z,6.67
2019-03-31T01:45:13.892Z,8.63
2019-03-31T01:47:42.502Z,8.28
2019-03-31T01:50:14.533Z,8.73
2019-03-31T01:52:43.186Z,9.48
2019-03-31T01:55:12.137Z,10.05
2019-03-31T01:57:40.795Z,11.70
2019-03-31T02:00:10.401Z,10.70
2019-03-31T02:02:39.130Z,9.63
2019-03-31T02:05:08.422Z,10.48
2019-03-31T02:07:37.166Z,9.83
2019-03-31T02:10:06.219Z,10.28
2019-03-31T02:12:34.876Z,10.08
2019-03-31T02:15:05.204Z,10.88
2019-03-31T02:17:33.819Z,11.10
2019-03-31T02:20:02.755Z,10.25
2019-03-31T02:22:31.370Z,9.85
2019-03-31T02:24:59.992Z,10.98
2019-03-31T02:27:28.652Z,10.98
2019-03-31T02:29:57.309Z,10.45
2019-03-31T02:32:25.932Z,10.53
2019-03-31T02:34:54.586Z,10.82
2019-03-31T02:37:23.209Z,10.80
2019-03-31T02:39:51.828Z,10.68
2019-03-31T02:42:20.514Z,11.78
2019-03-31T02:44:49.261Z,11.43
2019-03-31T02:47:17.937Z,11.22
2019-03-31T02:49:46.550Z,11.70
2019-03-31T02:52:15.354Z,10.90
2019-03-31T02:54:44.013Z,10.25
2019-03-31T02:57:12.967Z,11.12
2019-03-31T02:59:43.390Z,11.60
2019-03-31T03:02:13.684Z,11.05
2019-03-31T03:04:42.536Z,10.95
2019-03-31T03:07:14.436Z,10.68
2019-03-31T03:09:45.030Z,10.98
2019-03-31T03:12:15.772Z,11.15
2019-03-31T03:14:46.125Z,10.82
2019-03-31T03:17:14.808Z,11.00
2019-03-31T03:19:43.421Z,11.25
2019-03-31T03:22:12.183Z,11.65
2019-03-31T03:24:40.848Z,11.97
2019-03-31T03:27:09.466Z,11.68
2019-03-31T03:29:38.139Z,10.95
2019-03-31T03:32:06.752Z,11.45
2019-03-31T03:34:35.433Z,11.15
2019-03-31T03:37:04.120Z,12.28
2019-03-31T03:39:32.790Z,12.15
2019-03-31T03:42:01.405Z,11.53
2019-03-31T03:44:30.098Z,11.30
2019-03-31T03:46:58.833Z,11.85
2019-03-31T03:49:27.450Z,11.28
2019-03-31T03:51:56.106Z,11.53
2019-03-31T03:54:24.718Z,13.03
2019-03-31T03:56:53.493Z,11.85
2019-03-31T03:59:22.098Z,12.55
2019-03-31T04:01:50.768Z,12.43
2019-03-31T04:04:19.394Z,12.28
2019-03-31T04:06:48.122Z,13.00
2019-03-31T04:09:16.740Z,12.93
2019-03-31T04:11:45.394Z,12.58
2019-03-31T04:14:14.062Z,11.88
2019-03-31T04:16:42.678Z,12.43
2019-03-31T04:19:11.345Z,11.63
2019-03-31T04:21:39.958Z,12.00
2019-03-31T04:24:08.633Z,11.70
2019-03-31T04:26:37.240Z,11.33
2019-03-31T04:29:05.909Z,11.73
2019-03-31T04:31:34.528Z,12.98
2019-03-31T04:34:03.209Z,12.10
2019-03-31T04:36:31.938Z,12.18
2019-03-31T04:39:00.973Z,12.65
2019-03-31T04:41:29.835Z,12.82
2019-03-31T04:43:58.502Z,13.15
2019-03-31T04:46:27.208Z,13.40
2019-03-31T04:48:55.891Z,13.70
2019-03-31T04:51:24.561Z,12.68
2019-03-31T04:53:53.227Z,13.50
2019-03-31T04:56:21.844Z,12.58
2019-03-31T04:58:50.511Z,13.60
2019-03-31T05:01:19.220Z,12.78
2019-03-31T05:03:47.881Z,12.82
2019-03-31T05:06:16.549Z,12.90
2019-03-31T05:08:45.278Z,12.25
2019-03-31T05:11:13.895Z,12.73
2019-03-31T05:13:42.559Z,12.98
2019-03-31T05:16:11.242Z,13.08
2019-03-31T05:18:39.913Z,12.43
2019-03-31T05:21:08.608Z,11.83
2019-03-31T05:23:37.272Z,12.82
2019-03-31T05:26:05.955Z,13.10
2019-03-31T05:28:34.619Z,12.88
2019-03-31T05:31:03.280Z,13.55
2019-03-31T05:33:31.949Z,12.65
2019-03-31T05:36:00.563Z,12.60
2019-03-31T05:38:29.222Z,13.15
2019-03-31T05:40:57.886Z,12.28
2019-03-31T05:43:26.553Z,12.58
2019-03-31T05:45:55.216Z,13.93
2019-03-31T05:48:23.834Z,13.30
2019-03-31T05:50:52.499Z,12.98
2019-03-31T05:53:21.116Z,13.50
2019-03-31T05:55:49.786Z,12.95
2019-03-31T05:58:18.400Z,13.00
2019-03-31T06:00:47.173Z,12.98
2019-03-31T06:03:15.786Z,12.78
2019-03-31T06:05:44.546Z,12.93
2019-03-31T06:08:13.233Z,13.10
2019-03-31T06:10:41.848Z,13.03
2019-03-31T06:13:10.511Z,13.20
2019-03-31T06:15:39.128Z,13.83
2019-03-31T06:18:07.745Z,13.48
2019-03-31T06:20:36.460Z,13.72
2019-03-31T06:23:05.247Z,13.32
2019-03-31T06:25:33.862Z,14.53
2019-03-31T06:28:02.544Z,13.05
2019-03-31T06:30:31.209Z,14.75
2019-03-31T06:32:59.824Z,16.05
2019-03-31T06:35:28.491Z,16.00
2019-03-31T06:37:57.107Z,15.48
2019-03-31T06:40:25.770Z,15.80
2019-03-31T06:42:54.380Z,17.98
2019-03-31T06:45:23.045Z,15.15
2019-03-31T06:47:51.711Z,16.70
2019-03-31T06:50:20.322Z,16.67
2019-03-31T06:52:48.989Z,18.32
2019-03-31T06:55:17.604Z,18.05
2019-03-31T06:57:46.267Z,16.90
2019-03-31T07:00:15.223Z,15.78
2019-03-31T07:02:43.887Z,16.35
2019-03-31T07:05:12.499Z,16.23
2019-03-31T07:07:41.190Z,16.23
2019-03-31T07:10:10.143Z,15.08
2019-03-31T07:12:38.808Z,13.72
2019-03-31T07:15:08.888Z,13.08
2019-03-31T07:17:37.674Z,13.45
2019-03-31T07:20:08.846Z,12.47
2019-03-31T07:22:37.637Z,11.97
2019-03-31T07:25:09.381Z,11.97
2019-03-31T07:27:38.712Z,11.28
2019-03-31T07:30:11.778Z,11.33
2019-03-31T07:32:40.511Z,10.95
2019-03-31T07:35:18.209Z,13.43
2019-03-31T07:37:47.636Z,11.33
2019-03-31T07:40:18.591Z,9.83
2019-03-31T07:42:50.878Z,11.93
2019-03-31T07:45:18.809Z,10.13
2019-03-31T07:47:47.543Z,9.58
2019-03-31T07:50:18.829Z,9.53
2019-03-31T07:52:47.544Z,10.43
2019-03-31T07:55:17.004Z,10.10
2019-03-31T07:57:45.738Z,10.50
2019-03-31T08:00:18.705Z,10.18
2019-03-31T08:02:47.413Z,9.30
2019-03-31T08:05:16.437Z,9.73
2019-03-31T08:07:45.547Z,10.50
2019-03-31T08:10:15.549Z,8.53
2019-03-31T08:12:44.303Z,7.97
2019-03-31T08:15:13.419Z,9.23
2019-03-31T08:17:42.884Z,9.10
2019-03-31T08:20:15.176Z,8.65
2019-03-31T08:22:43.827Z,8.20
2019-03-31T08:25:13.303Z,9.18
2019-03-31T08:27:42.002Z,8.83
2019-03-31T08:30:13.936Z,7.85
2019-03-31T08:32:42.585Z,7.30
2019-03-31T08:35:12.466Z,6.65
2019-03-31T08:37:42.921Z,6.58
2019-03-31T08:40:13.249Z,7.03
2019-03-31T08:42:41.938Z,5.47
2019-03-31T08:45:11.241Z,5.42
2019-03-31T08:47:39.906Z,5.45
2019-03-31T08:50:09.818Z,4.65
2019-03-31T08:52:38.854Z,4.65
2019-03-31T08:55:08.152Z,4.50
2019-03-31T08:57:36.768Z,3.85
2019-03-31T09:00:08.040Z,4.15
2019-03-31T09:02:36.654Z,4.55
2019-03-31T09:05:08.632Z,4.60
2019-03-31T09:07:37.322Z,4.97
2019-03-31T09:10:09.034Z,5.10
2019-03-31T09:12:38.677Z,5.28
2019-03-31T09:15:09.404Z,4.35
2019-03-31T09:17:38.233Z,4.45
2019-03-31T09:20:08.234Z,4.78
2019-03-31T09:22:37.133Z,4.72
2019-03-31T09:25:07.594Z,4.70
2019-03-31T09:27:36.258Z,4.58
2019-03-31T09:30:10.706Z,4.20
2019-03-31T09:32:39.449Z,4.58
2019-03-31T09:35:09.578Z,4.67
2019-03-31T09:37:38.241Z,4.85
2019-03-31T09:40:10.406Z,5.08
2019-03-31T09:42:40.493Z,5.30
2019-03-31T09:45:10.133Z,4.47
2019-03-31T09:47:39.633Z,4.50
2019-03-31T09:50:11.821Z,4.70
2019-03-31T09:52:40.758Z,4.58
2019-03-31T09:55:10.015Z,4.33
2019-03-31T09:57:39.111Z,4.55
2019-03-31T10:00:12.511Z,4.90
2019-03-31T10:02:41.248Z,4.62
2019-03-31T10:05:10.552Z,4.20
2019-03-31T10:07:39.834Z,4.37
2019-03-31T10:10:13.527Z,4.72
2019-03-31T10:12:42.146Z,4.50
2019-03-31T10:15:11.064Z,4.08
2019-03-31T10:17:39.724Z,4.28
2019-03-31T10:20:08.678Z,4.67
2019-03-31T10:22:37.339Z,4.60
2019-03-31T10:25:07.508Z,4.22
2019-03-31T10:27:36.166Z,3.80
2019-03-31T10:30:06.686Z,4.12
2019-03-31T10:32:35.518Z,4.17
2019-03-31T10:35:06.872Z,3.67
2019-03-31T10:37:35.534Z,4.22
2019-03-31T10:40:07.354Z,3.77
2019-03-31T10:42:36.095Z,3.98
2019-03-31T10:45:07.085Z,3.75
2019-03-31T10:47:35.747Z,3.90
2019-03-31T10:50:06.725Z,4.28
2019-03-31T10:52:35.628Z,4.83
2019-03-31T10:55:07.237Z,4.72
2019-03-31T10:57:35.905Z,5.00
2019-03-31T11:00:10.144Z,4.67
2019-03-31T11:02:38.753Z,5.35
2019-03-31T11:05:08.223Z,5.20
2019-03-31T11:07:36.839Z,4.62
2019-03-31T11:10:06.908Z,4.33
2019-03-31T11:12:35.617Z,4.33
2019-03-31T11:15:06.295Z,4.37
2019-03-31T11:17:34.952Z,4.28
2019-03-31T11:20:05.905Z,4.15
2019-03-31T11:22:34.571Z,4.90
2019-03-31T11:25:04.005Z,4.87
2019-03-31T11:27:32.665Z,4.67
2019-03-31T11:30:01.336Z,4.90
2019-03-31T11:32:30.177Z,4.85
2019-03-31T11:34:58.796Z,5.08
2019-03-31T11:37:27.412Z,6.78
2019-03-31T11:39:56.082Z,7.97
2019-03-31T11:42:24.701Z,12.10
2019-03-31T11:44:53.456Z,8.93
2019-03-31T11:47:22.072Z,7.87
2019-03-31T11:49:50.690Z,7.15
2019-03-31T11:52:19.357Z,10.30
2019-03-31T11:54:47.994Z,5.90
2019-03-31T11:57:17.631Z,14.73
2019-03-31T11:59:49.550Z,13.05
2019-03-31T12:02:26.924Z,7.92
2019-03-31T12:04:47.351Z,7.08
2019-03-31T12:07:27.286Z,10.80
2019-03-31T12:09:46.351Z,8.93
2019-03-31T12:12:14.976Z,10.35
2019-03-31T12:14:43.629Z,5.65
2019-03-31T12:17:12.303Z,7.65
2019-03-31T12:19:40.914Z,23.62
2019-03-31T12:22:09.593Z,21.75
2019-03-31T12:24:38.271Z,13.68
2019-03-31T12:27:06.933Z,6.05
2019-03-31T12:29:35.543Z,5.55
2019-03-31T12:32:04.286Z,4.50
2019-03-31T12:34:32.962Z,3.72
2019-03-31T12:37:01.669Z,3.72
2019-03-31T12:39:30.280Z,3.90
2019-03-31T12:41:58.954Z,4.97
2019-03-31T12:44:27.573Z,5.37
2019-03-31T12:46:56.653Z,5.25
2019-03-31T12:49:25.402Z,3.62
2019-03-31T12:51:55.203Z,4.12
2019-03-31T12:54:24.062Z,4.12
2019-03-31T12:56:52.672Z,4.30
2019-03-31T12:59:21.339Z,4.10
2019-03-31T13:01:49.992Z,3.90
2019-03-31T13:04:18.680Z,2.92
2019-03-31T13:06:47.375Z,2.75
2019-03-31T13:09:16.050Z,2.67
2019-03-31T13:11:44.700Z,3.10
2019-03-31T13:14:13.453Z,2.70
2019-03-31T13:16:42.116Z,2.55
2019-03-31T13:19:10.799Z,2.95
2019-03-31T13:21:39.463Z,2.92
2019-03-31T13:24:08.168Z,3.00
2019-03-31T13:26:36.833Z,3.25
2019-03-31T13:29:05.551Z,2.92
2019-03-31T13:31:34.159Z,3.00
2019-03-31T13:34:02.822Z,2.85
2019-03-31T13:36:31.440Z,2.85
2019-03-31T13:39:00.107Z,2.65
2019-03-31T13:41:28.790Z,2.17
2019-03-31T13:43:57.463Z,1.92
2019-03-31T13:46:26.074Z,1.80
2019-03-31T13:48:54.686Z,1.70
2019-03-31T13:51:24.707Z,1.45
2019-03-31T13:53:53.548Z,1.30
2019-03-31T13:56:22.212Z,1.52
2019-03-31T13:58:52.406Z,1.00
2019-03-31T14:01:21.445Z,0.90
2019-03-31T14:03:50.121Z,0.80
2019-03-31T14:06:18.786Z,0.70
2019-03-31T14:08:47.402Z,0.70
2019-03-31T14:11:16.177Z,0.90
2019-03-31T14:13:44.794Z,0.75
2019-03-31T14:16:13.460Z,0.80
2019-03-31T14:18:42.130Z,0.60
2019-03-31T14:21:10.747Z,0.62
2019-03-31T14:23:39.360Z,0.60
2019-03-31T14:26:08.025Z,0.70
2019-03-31T14:28:36.641Z,0.65
2019-03-31T14:31:05.305Z,0.50
2019-03-31T14:33:33.974Z,0.40
2019-03-31T14:36:02.634Z,0.50
2019-03-31T14:38:39.934Z,0.50
2019-03-31T14:41:02.039Z,0.40
2019-03-31T14:43:30.719Z,0.50
2019-03-31T14:45:59.332Z,0.37
2019-03-31T14:48:27.996Z,0.40
2019-03-31T14:50:56.695Z,0.42
2019-03-31T14:53:25.347Z,0.45
2019-03-31T14:55:54.009Z,0.42
2019-03-31T14:58:22.627Z,0.60
2019-03-31T15:00:51.305Z,0.30
2019-03-31T15:03:19.920Z,0.50
2019-03-31T15:05:48.530Z,0.40
2019-03-31T15:08:17.195Z,0.40
2019-03-31T15:10:45.844Z,0.40
2019-03-31T15:13:14.504Z,0.60
2019-03-31T15:15:43.130Z,0.37
2019-03-31T15:18:11.800Z,0.70
2019-03-31T15:20:40.420Z,0.70
2019-03-31T15:23:09.084Z,0.90
2019-03-31T15:25:37.695Z,0.60
2019-03-31T15:28:06.304Z,0.60
2019-03-31T15:30:34.970Z,0.80
2019-03-31T15:33:03.585Z,0.50
2019-03-31T15:35:32.245Z,0.75
2019-03-31T15:38:00.874Z,0.50
2019-03-31T15:40:29.623Z,0.60
2019-03-31T15:42:58.485Z,0.68
2019-03-31T15:45:27.168Z,0.82
2019-03-31T15:47:55.790Z,0.75
2019-03-31T15:50:24.455Z,0.50
2019-03-31T15:52:53.074Z,0.50
2019-03-31T15:55:21.691Z,0.60
2019-03-31T15:57:50.355Z,0.40
2019-03-31T16:00:19.702Z,0.85
2019-03-31T16:02:48.310Z,0.50
2019-03-31T16:05:16.974Z,0.40
2019-03-31T16:07:47.192Z,0.47
2019-03-31T16:10:16.402Z,0.50
2019-03-31T16:12:45.060Z,0.55
2019-03-31T16:15:14.216Z,0.35
2019-03-31T16:17:42.951Z,0.50
2019-03-31T16:20:12.001Z,0.60
2019-03-31T16:22:40.740Z,0.50
2019-03-31T16:25:09.647Z,0.80
2019-03-31T16:27:38.261Z,0.50
2019-03-31T16:30:07.844Z,0.60
2019-03-31T16:32:36.508Z,0.50
2019-03-31T16:35:06.125Z,0.50
2019-03-31T16:37:34.857Z,0.60
2019-03-31T16:40:05.894Z,0.53
2019-03-31T16:42:34.629Z,0.80
2019-03-31T16:45:05.832Z,1.00
2019-03-31T16:47:34.497Z,0.82
2019-03-31T16:50:05.316Z,0.70
2019-03-31T16:52:34.091Z,0.90
2019-03-31T16:55:03.446Z,0.45
2019-03-31T16:57:32.178Z,0.50
2019-03-31T17:00:00.794Z,0.50
2019-03-31T17:02:29.463Z,0.65
2019-03-31T17:04:58.132Z,0.55
2019-03-31T17:07:26.799Z,0.40
2019-03-31T17:09:55.463Z,0.68
2019-03-31T17:12:24.132Z,0.50
2019-03-31T17:14:52.815Z,0.75
2019-03-31T17:17:21.481Z,0.53
2019-03-31T17:19:50.091Z,0.57
2019-03-31T17:22:18.759Z,0.50
2019-03-31T17:24:47.377Z,0.50
2019-03-31T17:27:16.105Z,0.53
2019-03-31T17:29:44.790Z,0.57
2019-03-31T17:32:13.450Z,0.70
2019-03-31T17:34:42.063Z,0.60
2019-03-31T17:37:10.727Z,0.45
2019-03-31T17:39:39.391Z,0.68
2019-03-31T17:42:08.067Z,0.78
2019-03-31T17:44:36.704Z,0.70
2019-03-31T17:47:05.320Z,0.62
2019-03-31T17:49:34.163Z,0.50
2019-03-31T17:52:02.816Z,0.72
2019-03-31T17:54:31.473Z,0.80
2019-03-31T17:57:00.243Z,0.90
2019-03-31T17:59:28.900Z,1.00
2019-03-31T18:01:57.569Z,1.00
2019-03-31T18:04:26.185Z,0.75
2019-03-31T18:06:54.849Z,0.80
2019-03-31T18:09:23.509Z,0.80
2019-03-31T18:11:52.172Z,0.80
2019-03-31T18:14:20.799Z,0.90
2019-03-31T18:16:49.472Z,0.60
2019-03-31T18:19:18.078Z,0.60
2019-03-31T18:21:46.734Z,0.82
2019-03-31T18:24:15.475Z,0.90
2019-03-31T18:26:44.146Z,0.70
2019-03-31T18:29:12.817Z,0.93
2019-03-31T18:31:41.424Z,1.00
2019-03-31T18:34:10.117Z,1.12
2019-03-31T18:36:38.778Z,0.95
2019-03-31T18:39:07.858Z,0.80
2019-03-31T18:41:36.587Z,0.82
2019-03-31T18:44:05.534Z,0.75
2019-03-31T18:46:34.174Z,0.90
2019-03-31T18:49:02.830Z,0.80
2019-03-31T18:51:31.445Z,1.12
2019-03-31T18:54:00.114Z,0.90
2019-03-31T18:56:28.838Z,2.62
2019-03-31T18:58:57.629Z,2.95
2019-03-31T19:01:26.295Z,4.45
2019-03-31T19:03:55.656Z,5.87
2019-03-31T19:06:24.433Z,5.85
2019-03-31T19:08:54.029Z,4.95
2019-03-31T19:11:24.817Z,5.00
2019-03-31T19:13:55.571Z,4.70
2019-03-31T19:16:26.230Z,4.03
2019-03-31T19:18:56.047Z,3.30
2019-03-31T19:21:24.885Z,2.67
2019-03-31T19:23:53.498Z,1.77
2019-03-31T19:26:23.138Z,1.60
2019-03-31T19:28:52.606Z,1.40
2019-03-31T19:31:21.435Z,1.37
2019-03-31T19:33:51.541Z,1.37
2019-03-31T19:36:21.111Z,1.20
2019-03-31T19:38:53.282Z,1.45
2019-03-31T19:41:22.019Z,1.42
2019-03-31T19:43:50.739Z,1.40
2019-03-31T19:46:19.405Z,1.45
2019-03-31T19:48:48.012Z,1.50
2019-03-31T19:51:16.678Z,1.50
2019-03-31T19:53:45.449Z,1.30
2019-03-31T19:56:15.079Z,1.45
2019-03-31T19:58:44.508Z,1.37
2019-03-31T20:01:13.765Z,1.57
2019-03-31T20:03:42.486Z,1.60
2019-03-31T20:06:11.166Z,1.50
2019-03-31T20:08:39.831Z,1.00
2019-03-31T20:11:08.445Z,0.98
2019-03-31T20:13:37.178Z,0.98
2019-03-31T20:16:05.857Z,0.98
2019-03-31T20:18:34.541Z,0.70
2019-03-31T20:21:03.149Z,0.75
2019-03-31T20:23:31.813Z,0.60
2019-03-31T20:26:00.425Z,0.80
2019-03-31T20:28:29.084Z,0.95
2019-03-31T20:30:57.693Z,0.98
2019-03-31T20:33:26.349Z,1.25
2019-03-31T20:35:54.960Z,0.78
2019-03-31T20:38:23.633Z,1.05
2019-03-31T20:40:52.246Z,0.82
2019-03-31T20:43:20.859Z,0.85
2019-03-31T20:45:49.517Z,1.10
2019-03-31T20:48:18.198Z,1.00
2019-03-31T20:50:46.811Z,1.00
2019-03-31T20:53:15.421Z,0.88
2019-03-31T20:55:44.080Z,1.17
2019-03-31T20:58:12.753Z,1.00
2019-03-31T21:00:41.364Z,1.07
2019-03-31T21:03:10.027Z,0.90
2019-03-31T21:05:38.625Z,0.90
2019-03-31T21:08:07.295Z,1.00
2019-03-31T21:10:35.904Z,1.07
2019-03-31T21:13:04.562Z,1.30
2019-03-31T21:15:33.172Z,0.80
2019-03-31T21:18:01.941Z,0.80
2019-03-31T21:20:30.547Z,0.98
2019-03-31T21:22:59.158Z,0.78
2019-03-31T21:25:27.813Z,0.93
2019-03-31T21:27:56.470Z,0.80
2019-03-31T21:30:25.150Z,0.62
2019-03-31T21:32:53.807Z,0.85
2019-03-31T21:35:22.469Z,0.93
2019-03-31T21:37:51.076Z,0.82
2019-03-31T21:40:19.735Z,0.80
2019-03-31T21:42:48.397Z,0.82
2019-03-31T21:45:17.028Z,0.98
2019-03-31T21:47:45.731Z,0.80
2019-03-31T21:50:14.681Z,1.00
2019-03-31T21:52:43.339Z,0.85
2019-03-31T21:55:11.959Z,0.72
2019-03-31T21:57:40.602Z,0.90
2019-03-31T22:00:11.080Z,0.90
2019-03-31T22:02:39.848Z,0.90
2019-03-31T22:05:08.919Z,0.60
2019-03-31T22:07:37.606Z,0.68
2019-03-31T22:10:07.217Z,0.95
2019-03-31T22:12:35.875Z,0.90
2019-03-31T22:15:05.521Z,0.80
2019-03-31T22:17:34.193Z,0.75
2019-03-31T22:20:03.703Z,0.80
2019-03-31T22:22:32.310Z,0.93
2019-03-31T22:25:00.922Z,0.80
2019-03-31T22:27:29.575Z,0.85
2019-03-31T22:29:58.246Z,0.85
2019-03-31T22:32:26.852Z,0.90
2019-03-31T22:34:55.523Z,0.90
2019-03-31T22:37:24.194Z,0.90
2019-03-31T22:39:52.805Z,0.80
2019-03-31T22:42:21.461Z,0.72
2019-03-31T22:44:50.119Z,1.00
2019-03-31T22:47:18.836Z,1.00
2019-03-31T22:49:47.490Z,0.90
2019-03-31T22:52:16.206Z,0.85
2019-03-31T22:54:44.867Z,0.82
2019-03-31T22:57:13.554Z,0.90
2019-03-31T22:59:42.269Z,0.80
2019-03-31T23:02:10.871Z,0.70
2019-03-31T23:04:39.639Z,0.78
2019-03-31T23:07:08.244Z,0.80
2019-03-31T23:09:36.858Z,1.00
2019-03-31T23:12:05.518Z,0.93
2019-03-31T23:14:34.122Z,0.90
2019-03-31T23:17:02.779Z,0.80
2019-03-31T23:19:31.390Z,1.00
2019-03-31T23:22:00.049Z,1.42
2019-03-31T23:24:28.719Z,1.00
2019-03-31T23:26:57.376Z,1.20
2019-03-31T23:29:25.979Z,0.90
2019-03-31T23:31:54.778Z,1.27
2019-03-31T23:34:23.390Z,0.78
2019-03-31T23:36:51.995Z,1.47
2019-03-31T23:39:20.652Z,0.98
2019-03-31T23:41:49.321Z,0.90
2019-03-31T23:44:17.931Z,0.82
2019-03-31T23:46:46.537Z,0.80
2019-03-31T23:49:15.197Z,0.90
2019-03-31T23:51:43.963Z,1.00
2019-03-31T23:54:12.621Z,0.80
2019-03-31T23:56:41.285Z,1.07
2019-03-31T23:59:09.941Z,1.20
